createdAt,value
2018-02-24T00:01:04.320Z,0.85
2018-02-24T00:03:31.890Z,0.82
2018-02-24T00:05:59.435Z,0.82
2018-02-24T00:08:26.961Z,0.83
2018-02-24T00:10:54.455Z,0.84
2018-02-24T00:13:22.012Z,0.81
2018-02-24T00:15:49.503Z,0.91
2018-02-24T00:18:17.016Z,0.90
2018-02-24T00:20:44.584Z,0.88
2018-02-24T00:23:12.099Z,0.86
2018-02-24T00:25:39.627Z,0.86
2018-02-24T00:28:07.151Z,0.90
2018-02-24T00:30:34.663Z,0.91
2018-02-24T00:33:02.292Z,0.89
2018-02-24T00:35:29.783Z,0.87
2018-02-24T00:37:57.299Z,0.92
2018-02-24T00:40:24.840Z,0.95
2018-02-24T00:42:52.418Z,0.93
2018-02-24T00:45:19.910Z,0.93
2018-02-24T00:47:47.425Z,0.90
2018-02-24T00:50:14.912Z,0.90
2018-02-24T00:52:42.419Z,0.86
2018-02-24T00:55:10.133Z,0.92
2018-02-24T00:57:37.644Z,0.96
2018-02-24T01:00:05.311Z,0.93
2018-02-24T01:02:32.823Z,0.91
2018-02-24T01:05:00.323Z,0.91
2018-02-24T01:07:27.827Z,0.94
2018-02-24T01:09:55.371Z,0.93
2018-02-24T01:12:22.868Z,0.92
2018-02-24T01:14:50.386Z,0.91
2018-02-24T01:17:17.872Z,0.95
2018-02-24T01:19:45.404Z,0.88
2018-02-24T01:22:12.916Z,0.87
2018-02-24T01:24:40.551Z,0.83
2018-02-24T01:27:08.060Z,0.87
2018-02-24T01:29:35.605Z,0.88
2018-02-24T01:32:03.117Z,0.89
2018-02-24T01:34:31.592Z,0.91
2018-02-24T01:36:59.147Z,0.89
2018-02-24T01:39:26.704Z,0.86
2018-02-24T01:41:54.232Z,0.87
2018-02-24T01:44:21.744Z,0.91
2018-02-24T01:46:49.260Z,0.89
2018-02-24T01:49:16.947Z,0.90
2018-02-24T01:51:44.439Z,0.88
2018-02-24T01:54:12.063Z,0.86
2018-02-24T01:56:39.563Z,0.85
2018-02-24T01:59:07.089Z,0.82
2018-02-24T02:01:35.527Z,0.85
2018-02-24T02:04:03.038Z,0.85
2018-02-24T02:06:30.574Z,0.86
2018-02-24T02:08:58.143Z,0.86
2018-02-24T02:11:25.704Z,0.81
2018-02-24T02:13:53.224Z,0.80
2018-02-24T02:16:20.715Z,0.87
2018-02-24T02:18:48.223Z,0.85
2018-02-24T02:21:15.711Z,0.83
2018-02-24T02:23:43.240Z,0.88
2018-02-24T02:26:10.755Z,0.85
2018-02-24T02:28:38.267Z,0.89
2018-02-24T02:31:05.764Z,0.83
2018-02-24T02:33:33.284Z,0.82
2018-02-24T02:36:00.900Z,0.81
2018-02-24T02:38:28.416Z,0.79
2018-02-24T02:40:55.919Z,0.77
2018-02-24T02:43:23.461Z,0.82
2018-02-24T02:45:50.980Z,0.80
2018-02-24T02:48:18.471Z,0.78
2018-02-24T02:50:45.999Z,0.80
2018-02-24T02:53:13.493Z,0.77
2018-02-24T02:55:41.056Z,0.80
2018-02-24T02:58:08.550Z,0.79
2018-02-24T03:00:36.090Z,0.81
2018-02-24T03:03:03.592Z,0.83
2018-02-24T03:05:31.200Z,0.80
2018-02-24T03:07:58.715Z,0.81
2018-02-24T03:10:26.319Z,0.86
2018-02-24T03:12:53.811Z,0.85
2018-02-24T03:15:21.327Z,0.85
2018-02-24T03:17:48.811Z,0.85
2018-02-24T03:20:16.368Z,0.85
2018-02-24T03:22:43.903Z,0.88
2018-02-24T03:25:11.420Z,0.89
2018-02-24T03:27:38.911Z,0.88
2018-02-24T03:30:06.445Z,0.89
2018-02-24T03:32:34.026Z,0.90
2018-02-24T03:35:01.572Z,0.89
2018-02-24T03:37:29.059Z,0.87
2018-02-24T03:39:56.663Z,0.89
2018-02-24T03:42:24.401Z,0.91
2018-02-24T03:44:51.919Z,0.90
2018-02-24T03:47:19.458Z,0.89
2018-02-24T03:49:46.963Z,0.90
2018-02-24T03:52:14.479Z,0.93
2018-02-24T03:54:41.993Z,0.94
2018-02-24T03:57:09.487Z,0.91
2018-02-24T03:59:37.095Z,0.92
2018-02-24T04:02:04.667Z,0.95
2018-02-24T04:04:32.184Z,0.90
2018-02-24T04:06:59.672Z,0.89
2018-02-24T04:09:27.235Z,0.88
2018-02-24T04:11:54.723Z,0.89
2018-02-24T04:14:22.285Z,0.88
2018-02-24T04:16:50.719Z,0.90
2018-02-24T04:19:18.295Z,0.83
2018-02-24T04:21:45.812Z,0.79
2018-02-24T04:24:13.423Z,0.70
2018-02-24T04:26:40.956Z,0.60
2018-02-24T04:29:08.531Z,0.54
2018-02-24T04:31:36.055Z,0.51
2018-02-24T04:34:03.548Z,0.51
2018-02-24T04:36:31.106Z,0.50
2018-02-24T04:38:58.671Z,0.47
2018-02-24T04:41:26.237Z,0.41
2018-02-24T04:43:53.755Z,0.38
2018-02-24T04:46:21.265Z,0.33
2018-02-24T04:48:48.808Z,0.35
2018-02-24T04:51:16.327Z,0.33
2018-02-24T04:53:44.827Z,0.32
2018-02-24T04:56:12.407Z,0.30
2018-02-24T04:58:39.967Z,0.32
2018-02-24T05:01:07.526Z,0.31
2018-02-24T05:03:35.027Z,0.27
2018-02-24T05:06:02.649Z,0.26
2018-02-24T05:08:30.143Z,0.29
2018-02-24T05:10:57.664Z,0.30
2018-02-24T05:13:25.196Z,0.27
2018-02-24T05:15:52.703Z,0.26
2018-02-24T05:18:20.236Z,0.23
2018-02-24T05:20:47.747Z,0.19
2018-02-24T05:23:15.477Z,0.16
2018-02-24T05:25:43.020Z,0.08
2018-02-24T05:28:10.515Z,0.04
2018-02-24T05:30:38.043Z,-0.01
2018-02-24T05:33:05.540Z,-0.04
2018-02-24T05:35:34.085Z,-0.09
2018-02-24T05:38:01.580Z,-0.09
2018-02-24T05:40:29.100Z,-0.08
2018-02-24T05:42:56.658Z,-0.13
2018-02-24T05:45:24.221Z,-0.14
2018-02-24T05:47:51.776Z,-0.11
2018-02-24T05:50:19.303Z,-0.15
2018-02-24T05:52:46.896Z,-0.20
2018-02-24T05:55:14.391Z,-0.24
2018-02-24T05:57:41.923Z,-0.27
2018-02-24T06:00:09.590Z,-0.34
2018-02-24T06:02:37.166Z,-0.44
2018-02-24T06:05:04.631Z,-0.46
2018-02-24T06:07:32.282Z,-0.47
2018-02-24T06:09:59.784Z,-0.49
2018-02-24T06:12:27.338Z,-0.51
2018-02-24T06:14:54.834Z,-0.53
2018-02-24T06:17:22.396Z,-0.54
2018-02-24T06:19:49.967Z,-0.57
2018-02-24T06:22:17.484Z,-0.51
2018-02-24T06:24:44.984Z,-0.53
2018-02-24T06:27:12.647Z,-0.50
2018-02-24T06:29:40.144Z,-0.49
2018-02-24T06:32:07.655Z,-0.56
2018-02-24T06:34:35.167Z,-0.60
2018-02-24T06:37:02.683Z,-0.63
2018-02-24T06:39:30.240Z,-0.58
2018-02-24T06:41:57.788Z,-0.59
2018-02-24T06:44:25.305Z,-0.55
2018-02-24T06:46:52.825Z,-0.51
2018-02-24T06:49:20.334Z,-0.47
2018-02-24T06:51:47.876Z,-0.47
2018-02-24T06:54:15.386Z,-0.51
2018-02-24T06:56:42.895Z,-0.56
2018-02-24T06:59:10.392Z,-0.55
2018-02-24T07:01:37.903Z,-0.51
2018-02-24T07:04:05.416Z,-0.50
2018-02-24T07:06:32.932Z,-0.44
2018-02-24T07:09:00.422Z,-0.45
2018-02-24T07:11:27.937Z,-0.36
2018-02-24T07:13:55.432Z,-0.35
2018-02-24T07:16:23.003Z,-0.33
2018-02-24T07:18:50.510Z,-0.33
2018-02-24T07:21:18.027Z,-0.37
2018-02-24T07:23:45.527Z,-0.35
2018-02-24T07:26:13.095Z,-0.32
2018-02-24T07:28:40.607Z,-0.30
2018-02-24T07:31:08.116Z,-0.28
2018-02-24T07:33:35.632Z,-0.23
2018-02-24T07:36:03.280Z,-0.22
2018-02-24T07:38:30.806Z,-0.25
2018-02-24T07:40:58.304Z,-0.23
2018-02-24T07:43:25.819Z,-0.12
2018-02-24T07:45:53.340Z,-0.07
2018-02-24T07:48:20.880Z,-0.07
2018-02-24T07:50:48.480Z,-0.05
2018-02-24T07:53:16.000Z,-0.01
2018-02-24T07:55:43.556Z,-0.16
2018-02-24T07:58:11.099Z,-0.18
2018-02-24T08:00:38.592Z,-0.14
2018-02-24T08:03:06.137Z,-0.12
2018-02-24T08:05:33.623Z,0.01
2018-02-24T08:08:01.147Z,-0.05
2018-02-24T08:10:28.645Z,-0.04
2018-02-24T08:12:56.160Z,-0.09
2018-02-24T08:15:23.652Z,-0.07
2018-02-24T08:17:51.167Z,0.08
2018-02-24T08:20:18.659Z,0.26
2018-02-24T08:22:46.191Z,0.12
2018-02-24T08:25:13.687Z,-0.12
2018-02-24T08:27:41.317Z,-0.03
2018-02-24T08:30:08.848Z,0.08
2018-02-24T08:32:36.463Z,0.05
2018-02-24T08:35:04.002Z,0.16
2018-02-24T08:37:31.515Z,0.18
2018-02-24T08:39:59.007Z,0.34
2018-02-24T08:42:26.573Z,0.37
2018-02-24T08:44:54.131Z,0.21
2018-02-24T08:47:21.698Z,0.33
2018-02-24T08:49:49.187Z,0.31
2018-02-24T08:52:16.704Z,0.37
2018-02-24T08:54:44.227Z,0.35
2018-02-24T08:57:11.735Z,0.56
2018-02-24T08:59:39.253Z,0.57
2018-02-24T09:02:06.840Z,0.67
2018-02-24T09:04:34.415Z,0.63
2018-02-24T09:07:01.927Z,0.77
2018-02-24T09:09:29.532Z,0.90
2018-02-24T09:11:57.073Z,1.12
2018-02-24T09:14:24.643Z,1.04
2018-02-24T09:16:52.138Z,1.06
2018-02-24T09:19:19.683Z,1.00
2018-02-24T09:21:47.175Z,0.97
2018-02-24T09:24:14.797Z,0.89
2018-02-24T09:26:42.288Z,0.84
2018-02-24T09:29:09.815Z,0.76
2018-02-24T09:31:37.311Z,0.80
2018-02-24T09:34:04.911Z,0.97
2018-02-24T09:36:32.473Z,1.24
2018-02-24T09:38:59.989Z,1.08
2018-02-24T09:41:27.479Z,0.88
2018-02-24T09:43:54.986Z,0.76
2018-02-24T09:46:22.476Z,0.67
2018-02-24T09:48:50.063Z,0.90
2018-02-24T09:51:17.556Z,0.88
2018-02-24T09:53:45.086Z,1.05
2018-02-24T09:56:12.668Z,1.38
2018-02-24T09:58:40.257Z,1.56
2018-02-24T10:01:07.799Z,1.66
2018-02-24T10:03:35.354Z,1.61
2018-02-24T10:06:02.855Z,1.60
2018-02-24T10:08:30.367Z,1.68
2018-02-24T10:10:57.925Z,1.67
2018-02-24T10:13:25.476Z,1.83
2018-02-24T10:15:53.044Z,1.74
2018-02-24T10:18:20.599Z,1.61
2018-02-24T10:20:48.160Z,1.66
2018-02-24T10:23:15.720Z,1.66
2018-02-24T10:25:43.258Z,1.79
2018-02-24T10:28:10.790Z,2.18
2018-02-24T10:30:38.312Z,2.15
2018-02-24T10:33:05.940Z,2.35
2018-02-24T10:35:33.471Z,2.08
2018-02-24T10:38:00.974Z,2.10
2018-02-24T10:40:28.511Z,2.01
2018-02-24T10:42:56.002Z,1.86
2018-02-24T10:45:23.518Z,2.10
2018-02-24T10:47:51.101Z,2.38
2018-02-24T10:50:18.655Z,2.48
2018-02-24T10:52:46.155Z,2.56
2018-02-24T10:55:13.684Z,2.67
2018-02-24T10:57:41.180Z,2.79
2018-02-24T11:00:08.705Z,3.08
2018-02-24T11:02:36.196Z,3.26
2018-02-24T11:05:03.711Z,3.36
2018-02-24T11:07:31.224Z,3.54
2018-02-24T11:09:58.734Z,3.67
2018-02-24T11:12:26.220Z,3.82
2018-02-24T11:14:53.842Z,4.14
2018-02-24T11:17:21.335Z,4.27
2018-02-24T11:19:48.852Z,4.15
2018-02-24T11:22:16.344Z,3.88
2018-02-24T11:24:43.887Z,4.07
2018-02-24T11:27:11.388Z,4.24
2018-02-24T11:29:38.997Z,4.09
2018-02-24T11:32:06.487Z,4.26
2018-02-24T11:34:34.118Z,3.95
2018-02-24T11:37:01.672Z,3.94
2018-02-24T11:39:34.720Z,3.87
2018-02-24T11:42:02.242Z,4.25
2018-02-24T11:44:29.788Z,4.37
2018-02-24T11:46:57.344Z,4.84
2018-02-24T11:49:24.861Z,4.93
2018-02-24T11:51:52.456Z,5.09
2018-02-24T11:54:20.056Z,5.15
2018-02-24T11:56:47.555Z,4.83
2018-02-24T11:59:15.108Z,4.85
2018-02-24T12:01:42.604Z,4.89
2018-02-24T12:04:10.119Z,5.18
2018-02-24T12:06:37.612Z,5.47
2018-02-24T12:09:05.124Z,5.52
2018-02-24T12:11:32.614Z,5.46
2018-02-24T12:14:00.117Z,5.32
2018-02-24T12:16:27.668Z,5.71
2018-02-24T12:18:55.219Z,5.53
2018-02-24T12:21:22.772Z,5.65
2018-02-24T12:23:50.271Z,5.84
2018-02-24T12:26:17.934Z,6.48
2018-02-24T12:28:45.421Z,6.43
2018-02-24T12:31:13.120Z,6.45
2018-02-24T12:33:40.620Z,6.46
2018-02-24T12:36:08.137Z,6.57
2018-02-24T12:38:35.627Z,6.50
2018-02-24T12:41:03.135Z,6.36
2018-02-24T12:43:30.625Z,6.03
2018-02-24T12:45:58.164Z,5.91
2018-02-24T12:48:25.662Z,6.27
2018-02-24T12:50:53.222Z,6.35
2018-02-24T12:53:20.707Z,6.34
2018-02-24T12:55:48.223Z,6.33
2018-02-24T12:58:15.759Z,6.23
2018-02-24T13:00:43.268Z,5.55
2018-02-24T13:03:10.780Z,6.06
2018-02-24T13:05:38.296Z,6.29
2018-02-24T13:08:05.788Z,6.54
2018-02-24T13:10:33.317Z,6.92
2018-02-24T13:13:00.929Z,9.24
2018-02-24T13:15:28.439Z,9.51
2018-02-24T13:17:55.933Z,9.72
2018-02-24T13:20:23.487Z,9.90
2018-02-24T13:22:50.993Z,11.25
2018-02-24T13:25:18.550Z,11.37
2018-02-24T13:27:46.021Z,12.20
2018-02-24T13:30:13.536Z,11.04
2018-02-24T13:32:41.039Z,10.39
2018-02-24T13:35:08.570Z,12.68
2018-02-24T13:37:36.088Z,14.28
2018-02-24T13:40:03.627Z,13.65
2018-02-24T13:42:31.219Z,15.23
2018-02-24T13:44:58.779Z,14.29
2018-02-24T13:47:26.292Z,14.44
2018-02-24T13:49:53.784Z,14.32
2018-02-24T13:52:21.292Z,16.24
2018-02-24T13:54:48.783Z,16.53
2018-02-24T13:57:16.377Z,16.49
2018-02-24T13:59:43.951Z,14.62
2018-02-24T14:02:11.484Z,16.70
2018-02-24T14:04:39.028Z,17.73
2018-02-24T14:07:06.543Z,16.16
2018-02-24T14:09:34.039Z,17.08
2018-02-24T14:12:01.716Z,17.73
2018-02-24T14:14:29.294Z,19.13
2018-02-24T14:16:56.840Z,19.13
2018-02-24T14:19:24.334Z,19.60
2018-02-24T14:21:51.981Z,20.07
2018-02-24T14:24:19.533Z,19.63
2018-02-24T14:26:47.051Z,19.63
2018-02-24T14:29:14.573Z,19.79
2018-02-24T14:31:42.128Z,19.34
2018-02-24T14:34:09.644Z,17.88
2018-02-24T14:36:37.235Z,18.55
2018-02-24T14:39:04.730Z,18.96
2018-02-24T14:41:32.245Z,19.98
2018-02-24T14:43:59.745Z,18.53
2018-02-24T14:46:27.283Z,16.34
2018-02-24T14:48:54.796Z,16.74
2018-02-24T14:51:22.310Z,19.29
2018-02-24T14:53:49.807Z,19.12
2018-02-24T14:56:17.342Z,20.37
2018-02-24T14:58:44.868Z,20.63
2018-02-24T15:01:12.387Z,19.06
2018-02-24T15:03:39.879Z,19.20
2018-02-24T15:06:07.392Z,19.88
2018-02-24T15:08:34.904Z,20.31
2018-02-24T15:11:02.424Z,19.20
2018-02-24T15:13:30.003Z,19.81
2018-02-24T15:15:57.540Z,19.48
2018-02-24T15:18:25.044Z,19.52
2018-02-24T15:20:52.572Z,19.09
2018-02-24T15:23:20.068Z,18.98
2018-02-24T15:25:47.571Z,18.69
2018-02-24T15:28:15.108Z,17.94
2018-02-24T15:30:42.609Z,18.56
2018-02-24T15:33:10.127Z,18.33
2018-02-24T15:35:37.655Z,17.61
2018-02-24T15:38:05.197Z,18.33
2018-02-24T15:40:32.760Z,18.53
2018-02-24T15:43:00.281Z,17.82
2018-02-24T15:45:27.784Z,17.01
2018-02-24T15:47:55.344Z,16.57
2018-02-24T15:50:22.831Z,16.48
2018-02-24T15:52:51.198Z,13.27
2018-02-24T15:55:18.723Z,11.39
2018-02-24T15:57:46.287Z,9.64
2018-02-24T16:00:13.852Z,8.82
2018-02-24T16:02:41.371Z,8.04
2018-02-24T16:05:08.979Z,7.48
2018-02-24T16:07:36.676Z,6.99
2018-02-24T16:10:04.191Z,6.50
2018-02-24T16:12:31.704Z,6.16
2018-02-24T16:14:59.216Z,5.90
2018-02-24T16:17:26.737Z,5.66
2018-02-24T16:19:54.230Z,5.46
2018-02-24T16:22:21.739Z,5.25
2018-02-24T16:24:49.233Z,5.07
2018-02-24T16:27:16.763Z,4.89
2018-02-24T16:29:44.255Z,4.73
2018-02-24T16:32:11.767Z,4.66
2018-02-24T16:34:39.268Z,4.50
2018-02-24T16:37:06.797Z,4.37
2018-02-24T16:39:34.313Z,4.24
2018-02-24T16:42:01.852Z,4.14
2018-02-24T16:44:29.419Z,4.04
2018-02-24T16:46:56.931Z,3.85
2018-02-24T16:49:24.451Z,3.77
2018-02-24T16:51:51.974Z,3.66
2018-02-24T16:54:19.551Z,3.57
2018-02-24T16:56:47.134Z,3.41
2018-02-24T16:59:14.663Z,3.34
2018-02-24T17:01:42.154Z,3.16
2018-02-24T17:04:09.686Z,3.07
2018-02-24T17:06:37.180Z,2.97
2018-02-24T17:09:04.702Z,2.90
2018-02-24T17:11:32.227Z,2.80
2018-02-24T17:13:59.741Z,2.90
2018-02-24T17:16:27.300Z,2.76
2018-02-24T17:18:54.852Z,2.64
2018-02-24T17:21:22.344Z,2.68
2018-02-24T17:23:49.868Z,2.43
2018-02-24T17:26:17.542Z,2.50
2018-02-24T17:28:45.057Z,2.32
2018-02-24T17:31:12.547Z,2.43
2018-02-24T17:33:40.063Z,2.31
2018-02-24T17:36:11.423Z,2.24
2018-02-24T17:38:45.635Z,2.11
2018-02-24T17:41:15.295Z,1.93
2018-02-24T17:43:43.744Z,2.06
2018-02-24T17:46:11.331Z,2.11
2018-02-24T17:48:38.870Z,2.05
2018-02-24T17:51:06.429Z,1.91
2018-02-24T17:53:33.940Z,1.71
2018-02-24T17:56:01.434Z,1.67
2018-02-24T17:58:28.950Z,1.59
2018-02-24T18:00:56.455Z,1.61
2018-02-24T18:03:23.996Z,1.51
2018-02-24T18:05:51.561Z,1.34
2018-02-24T18:08:19.148Z,1.19
2018-02-24T18:10:46.709Z,1.22
2018-02-24T18:13:14.288Z,1.29
2018-02-24T18:15:41.783Z,1.32
2018-02-24T18:18:09.352Z,1.19
2018-02-24T18:20:36.824Z,1.11
2018-02-24T18:23:04.366Z,1.01
2018-02-24T18:25:31.852Z,1.11
2018-02-24T18:27:59.375Z,1.22
2018-02-24T18:30:26.898Z,1.46
2018-02-24T18:32:54.440Z,1.24
2018-02-24T18:35:21.935Z,1.19
2018-02-24T18:37:49.463Z,0.96
2018-02-24T18:40:16.997Z,0.82
2018-02-24T18:42:44.516Z,0.82
2018-02-24T18:45:12.135Z,0.88
2018-02-24T18:47:39.644Z,1.05
2018-02-24T18:50:07.257Z,1.27
2018-02-24T18:52:34.822Z,1.06
2018-02-24T18:55:02.343Z,0.99
2018-02-24T18:57:29.936Z,1.07
2018-02-24T18:59:57.465Z,1.02
2018-02-24T19:02:24.964Z,1.02
2018-02-24T19:04:52.479Z,0.88
2018-02-24T19:07:20.080Z,0.83
2018-02-24T19:09:47.594Z,0.74
2018-02-24T19:12:15.087Z,0.56
2018-02-24T19:14:42.758Z,0.62
2018-02-24T19:17:10.259Z,0.62
2018-02-24T19:19:37.783Z,0.72
2018-02-24T19:22:05.454Z,0.79
2018-02-24T19:24:32.988Z,0.92
2018-02-24T19:27:00.485Z,0.89
2018-02-24T19:29:27.991Z,0.81
2018-02-24T19:31:55.488Z,0.72
2018-02-24T19:34:23.016Z,0.81
2018-02-24T19:36:50.508Z,0.76
2018-02-24T19:39:18.068Z,0.80
2018-02-24T19:41:45.575Z,0.94
2018-02-24T19:44:13.236Z,0.93
2018-02-24T19:46:40.728Z,0.90
2018-02-24T19:49:08.257Z,0.86
2018-02-24T19:51:35.768Z,0.97
2018-02-24T19:54:03.264Z,1.09
2018-02-24T19:56:30.777Z,1.13
2018-02-24T19:58:58.333Z,1.20
2018-02-24T20:01:25.854Z,1.19
2018-02-24T20:03:53.351Z,1.28
2018-02-24T20:06:20.868Z,1.26
2018-02-24T20:08:48.421Z,1.22
2018-02-24T20:11:16.037Z,1.25
2018-02-24T20:13:43.572Z,1.28
2018-02-24T20:16:11.084Z,1.23
2018-02-24T20:18:38.686Z,1.21
2018-02-24T20:21:06.229Z,1.19
2018-02-24T20:23:33.803Z,1.11
2018-02-24T20:26:01.323Z,1.07
2018-02-24T20:28:28.821Z,0.99
2018-02-24T20:30:56.353Z,1.00
2018-02-24T20:33:23.943Z,0.95
2018-02-24T20:35:51.452Z,0.93
2018-02-24T20:38:18.964Z,0.90
2018-02-24T20:40:46.516Z,0.97
2018-02-24T20:43:14.004Z,0.99
2018-02-24T20:45:41.631Z,0.88
2018-02-24T20:48:09.128Z,0.91
2018-02-24T20:50:36.693Z,0.96
2018-02-24T20:53:04.188Z,0.91
2018-02-24T20:55:31.741Z,0.89
2018-02-24T20:57:59.248Z,0.86
2018-02-24T21:00:26.764Z,0.86
2018-02-24T21:02:55.303Z,0.82
2018-02-24T21:05:22.823Z,0.86
2018-02-24T21:07:50.392Z,0.74
2018-02-24T21:10:17.972Z,0.80
2018-02-24T21:12:45.487Z,0.91
2018-02-24T21:15:13.075Z,0.93
2018-02-24T21:17:40.582Z,0.83
2018-02-24T21:20:08.069Z,0.91
2018-02-24T21:22:35.599Z,0.90
2018-02-24T21:25:03.095Z,0.84
2018-02-24T21:27:30.629Z,0.79
2018-02-24T21:29:58.147Z,0.76
2018-02-24T21:32:26.059Z,0.67
2018-02-24T21:34:53.594Z,0.69
2018-02-24T21:37:21.215Z,0.71
2018-02-24T21:39:48.711Z,0.72
2018-02-24T21:42:16.227Z,0.70
2018-02-24T21:44:43.720Z,0.62
2018-02-24T21:47:11.244Z,0.48
2018-02-24T21:49:38.735Z,0.43
2018-02-24T21:52:06.267Z,0.30
2018-02-24T21:54:33.762Z,0.28
2018-02-24T21:57:01.278Z,0.24
2018-02-24T21:59:28.770Z,0.05
2018-02-24T22:01:56.299Z,-0.10
2018-02-24T22:04:23.800Z,-0.19
2018-02-24T22:06:51.320Z,-0.15
2018-02-24T22:09:18.824Z,-0.06
2018-02-24T22:11:46.356Z,-0.12
2018-02-24T22:14:13.855Z,-0.19
2018-02-24T22:16:41.373Z,-0.22
2018-02-24T22:19:08.864Z,-0.14
2018-02-24T22:21:36.383Z,-0.18
2018-02-24T22:24:03.875Z,-0.05
2018-02-24T22:26:31.393Z,-0.02
2018-02-24T22:28:58.879Z,0.07
2018-02-24T22:31:26.404Z,0.03
2018-02-24T22:33:53.905Z,0.02
2018-02-24T22:36:21.416Z,0.00
2018-02-24T22:38:48.991Z,0.01
2018-02-24T22:41:16.534Z,-0.03
2018-02-24T22:43:44.024Z,0.01
2018-02-24T22:46:11.551Z,-0.02
2018-02-24T22:48:44.655Z,-0.15
2018-02-24T22:51:12.212Z,-0.20
2018-02-24T22:53:39.723Z,-0.23
2018-02-24T22:56:07.216Z,-0.23
2018-02-24T22:58:34.755Z,-0.19
2018-02-24T23:01:02.367Z,-0.16
2018-02-24T23:03:29.881Z,-0.17
2018-02-24T23:05:57.375Z,-0.18
2018-02-24T23:08:25.027Z,-0.16
2018-02-24T23:10:52.528Z,-0.13
2018-02-24T23:13:20.057Z,-0.17
2018-02-24T23:15:47.627Z,-0.20
2018-02-24T23:18:15.226Z,-0.24
2018-02-24T23:20:42.752Z,-0.22
2018-02-24T23:23:10.300Z,-0.22
2018-02-24T23:25:37.808Z,-0.22
2018-02-24T23:28:05.328Z,-0.32
2018-02-24T23:30:32.839Z,-0.40
2018-02-24T23:33:00.404Z,-0.39
2018-02-24T23:35:27.907Z,-0.27
2018-02-24T23:37:55.452Z,-0.23
2018-02-24T23:40:22.991Z,-0.25
2018-02-24T23:42:50.512Z,-0.24
2018-02-24T23:45:18.008Z,-0.24
2018-02-24T23:47:45.524Z,-0.23
2018-02-24T23:50:13.016Z,-0.19
2018-02-24T23:52:40.599Z,-0.17
2018-02-24T23:55:08.100Z,-0.22
2018-02-24T23:57:35.628Z,-0.19
